sensor_id;sensor_type;location;lat;lon;timestamp;pressure;altitude;pressure_sealevel;temperature;humidity
26657;BME280;14279;50.010;8.260;2023-05-24T00:02:13;100967.06;;;14.06;54.09
26657;BME280;14279;50.010;8.260;2023-05-24T00:04:39;100962.47;;;14.11;53.94
26657;BME280;14279;50.010;8.260;2023-05-24T00:07:05;100963.63;;;13.88;56.79
26657;BME280;14279;50.010;8.260;2023-05-24T00:09:31;100976.09;;;13.82;57.44
26657;BME280;14279;50.010;8.260;2023-05-24T00:11:56;100963.31;;;13.59;57.07
26657;BME280;14279;50.010;8.260;2023-05-24T00:14:22;100961.53;;;13.59;57.74
26657;BME280;14279;50.010;8.260;2023-05-24T00:16:47;100961.00;;;13.70;57.66
26657;BME280;14279;50.010;8.260;2023-05-24T00:19:12;100959.47;;;13.66;57.71
26657;BME280;14279;50.010;8.260;2023-05-24T00:21:43;100960.00;;;13.73;57.57
26657;BME280;14279;50.010;8.260;2023-05-24T00:24:08;100956.00;;;13.65;57.71
26657;BME280;14279;50.010;8.260;2023-05-24T00:26:35;100956.31;;;13.77;57.58
26657;BME280;14279;50.010;8.260;2023-05-24T00:29:00;100959.53;;;13.47;58.32
26657;BME280;14279;50.010;8.260;2023-05-24T00:31:25;100954.44;;;13.25;59.37
26657;BME280;14279;50.010;8.260;2023-05-24T00:33:50;100959.75;;;13.42;58.91
26657;BME280;14279;50.010;8.260;2023-05-24T00:36:16;100955.44;;;13.41;58.51
26657;BME280;14279;50.010;8.260;2023-05-24T00:38:41;100966.53;;;13.46;58.39
26657;BME280;14279;50.010;8.260;2023-05-24T00:41:06;100959.19;;;13.16;59.84
26657;BME280;14279;50.010;8.260;2023-05-24T00:43:31;100953.34;;;13.11;60.04
26657;BME280;14279;50.010;8.260;2023-05-24T00:46:17;100963.63;;;13.14;60.46
26657;BME280;14279;50.010;8.260;2023-05-24T00:48:44;100965.38;;;12.96;61.10
26657;BME280;14279;50.010;8.260;2023-05-24T00:51:10;100968.50;;;12.85;61.35
26657;BME280;14279;50.010;8.260;2023-05-24T00:53:36;100965.09;;;12.83;60.51
26657;BME280;14279;50.010;8.260;2023-05-24T00:56:02;100968.97;;;12.74;60.59
26657;BME280;14279;50.010;8.260;2023-05-24T00:58:29;100971.91;;;12.67;61.12
26657;BME280;14279;50.010;8.260;2023-05-24T01:00:58;100964.94;;;12.27;60.51
26657;BME280;14279;50.010;8.260;2023-05-24T01:03:24;100966.13;;;12.60;60.49
26657;BME280;14279;50.010;8.260;2023-05-24T01:06:00;100978.56;;;12.34;60.79
26657;BME280;14279;50.010;8.260;2023-05-24T01:16:55;100976.38;;;12.25;61.10
26657;BME280;14279;50.010;8.260;2023-05-24T01:22:28;100981.44;;;12.28;62.32
26657;BME280;14279;50.010;8.260;2023-05-24T01:25:06;100974.41;;;12.30;61.80
26657;BME280;14279;50.010;8.260;2023-05-24T01:27:35;100970.94;;;12.29;62.26
26657;BME280;14279;50.010;8.260;2023-05-24T01:30:02;100959.94;;;12.42;61.87
26657;BME280;14279;50.010;8.260;2023-05-24T01:32:28;100958.72;;;12.70;61.01
26657;BME280;14279;50.010;8.260;2023-05-24T01:34:54;100960.00;;;12.61;60.87
26657;BME280;14279;50.010;8.260;2023-05-24T01:37:19;100965.59;;;12.72;60.37
26657;BME280;14279;50.010;8.260;2023-05-24T01:39:44;100958.16;;;12.82;59.90
26657;BME280;14279;50.010;8.260;2023-05-24T01:42:37;100959.69;;;13.05;59.78
26657;BME280;14279;50.010;8.260;2023-05-24T01:45:15;100958.88;;;13.05;59.90
26657;BME280;14279;50.010;8.260;2023-05-24T01:52:52;100964.25;;;12.43;61.31
26657;BME280;14279;50.010;8.260;2023-05-24T01:55:19;100965.53;;;12.34;62.39
26657;BME280;14279;50.010;8.260;2023-05-24T01:57:47;100963.13;;;12.29;62.55
26657;BME280;14279;50.010;8.260;2023-05-24T02:00:16;100966.25;;;12.17;61.74
26657;BME280;14279;50.010;8.260;2023-05-24T02:02:42;100965.91;;;12.04;63.06
26657;BME280;14279;50.010;8.260;2023-05-24T02:05:09;100966.97;;;12.21;62.89
26657;BME280;14279;50.010;8.260;2023-05-24T02:07:34;100968.09;;;12.15;62.96
26657;BME280;14279;50.010;8.260;2023-05-24T02:09:59;100971.16;;;12.04;61.87
26657;BME280;14279;50.010;8.260;2023-05-24T02:12:24;100964.09;;;12.06;61.59
26657;BME280;14279;50.010;8.260;2023-05-24T02:14:50;100963.41;;;12.02;62.11
26657;BME280;14279;50.010;8.260;2023-05-24T02:17:18;100960.22;;;11.94;61.98
26657;BME280;14279;50.010;8.260;2023-05-24T02:19:43;100962.59;;;12.00;60.97
26657;BME280;14279;50.010;8.260;2023-05-24T02:22:08;100963.50;;;12.20;61.48
26657;BME280;14279;50.010;8.260;2023-05-24T02:24:34;100968.09;;;12.15;60.65
26657;BME280;14279;50.010;8.260;2023-05-24T02:27:00;100970.72;;;12.15;61.03
26657;BME280;14279;50.010;8.260;2023-05-24T02:29:26;100969.25;;;11.87;61.99
26657;BME280;14279;50.010;8.260;2023-05-24T02:31:51;100976.41;;;11.82;62.19
26657;BME280;14279;50.010;8.260;2023-05-24T02:34:21;100976.13;;;11.67;62.88
26657;BME280;14279;50.010;8.260;2023-05-24T02:36:47;100979.66;;;11.44;62.90
26657;BME280;14279;50.010;8.260;2023-05-24T02:39:13;100980.69;;;11.40;63.09
26657;BME280;14279;50.010;8.260;2023-05-24T02:41:38;100976.84;;;11.49;63.17
26657;BME280;14279;50.010;8.260;2023-05-24T02:44:04;100981.47;;;11.42;62.47
26657;BME280;14279;50.010;8.260;2023-05-24T02:46:29;100970.13;;;11.43;62.33
26657;BME280;14279;50.010;8.260;2023-05-24T02:48:54;100969.59;;;11.57;61.17
26657;BME280;14279;50.010;8.260;2023-05-24T02:51:19;100965.72;;;11.45;61.06
26657;BME280;14279;50.010;8.260;2023-05-24T02:53:45;100976.38;;;11.39;61.16
26657;BME280;14279;50.010;8.260;2023-05-24T02:56:10;100969.00;;;11.28;61.05
26657;BME280;14279;50.010;8.260;2023-05-24T02:58:37;100977.94;;;11.21;61.28
26657;BME280;14279;50.010;8.260;2023-05-24T03:01:04;100972.97;;;11.37;60.81
26657;BME280;14279;50.010;8.260;2023-05-24T03:03:30;100967.06;;;11.55;60.96
26657;BME280;14279;50.010;8.260;2023-05-24T03:05:55;100975.59;;;11.37;61.08
26657;BME280;14279;50.010;8.260;2023-05-24T03:08:20;100959.16;;;11.35;61.67
26657;BME280;14279;50.010;8.260;2023-05-24T03:10:45;100974.78;;;11.35;61.89
26657;BME280;14279;50.010;8.260;2023-05-24T03:13:11;100974.88;;;11.33;62.08
26657;BME280;14279;50.010;8.260;2023-05-24T03:15:36;100976.44;;;11.37;62.36
26657;BME280;14279;50.010;8.260;2023-05-24T03:18:01;100969.16;;;11.46;61.95
26657;BME280;14279;50.010;8.260;2023-05-24T03:20:26;100966.44;;;11.49;61.56
26657;BME280;14279;50.010;8.260;2023-05-24T03:22:52;100972.69;;;11.22;61.44
26657;BME280;14279;50.010;8.260;2023-05-24T03:25:17;100972.47;;;11.28;61.12
26657;BME280;14279;50.010;8.260;2023-05-24T03:27:42;100973.59;;;11.21;61.42
26657;BME280;14279;50.010;8.260;2023-05-24T03:30:08;100968.56;;;11.17;61.32
26657;BME280;14279;50.010;8.260;2023-05-24T03:32:33;100972.38;;;10.84;62.21
26657;BME280;14279;50.010;8.260;2023-05-24T03:34:58;100973.75;;;10.94;62.19
26657;BME280;14279;50.010;8.260;2023-05-24T03:37:25;100971.75;;;11.01;61.52
26657;BME280;14279;50.010;8.260;2023-05-24T03:39:50;100974.19;;;11.28;61.34
26657;BME280;14279;50.010;8.260;2023-05-24T03:42:16;100978.94;;;11.18;61.14
26657;BME280;14279;50.010;8.260;2023-05-24T03:44:41;100981.28;;;11.02;61.57
26657;BME280;14279;50.010;8.260;2023-05-24T03:47:07;100979.44;;;11.04;61.21
26657;BME280;14279;50.010;8.260;2023-05-24T03:49:33;100982.44;;;11.17;61.28
26657;BME280;14279;50.010;8.260;2023-05-24T03:51:58;100986.44;;;11.26;61.01
26657;BME280;14279;50.010;8.260;2023-05-24T03:54:23;100981.94;;;11.52;60.71
26657;BME280;14279;50.010;8.260;2023-05-24T03:56:48;100990.22;;;11.41;60.60
26657;BME280;14279;50.010;8.260;2023-05-24T03:59:13;100988.81;;;11.54;60.60
26657;BME280;14279;50.010;8.260;2023-05-24T04:01:39;100993.13;;;11.33;60.89
26657;BME280;14279;50.010;8.260;2023-05-24T04:04:04;100988.94;;;11.29;60.34
26657;BME280;14279;50.010;8.260;2023-05-24T04:06:29;100994.81;;;11.34;60.32
26657;BME280;14279;50.010;8.260;2023-05-24T04:08:56;100993.41;;;11.25;60.71
26657;BME280;14279;50.010;8.260;2023-05-24T04:11:22;100996.06;;;11.24;60.73
26657;BME280;14279;50.010;8.260;2023-05-24T04:13:48;100998.31;;;11.11;60.93
26657;BME280;14279;50.010;8.260;2023-05-24T04:16:13;100998.94;;;11.18;60.49
26657;BME280;14279;50.010;8.260;2023-05-24T04:18:38;100990.13;;;11.20;60.99
26657;BME280;14279;50.010;8.260;2023-05-24T04:21:04;100992.03;;;11.17;60.55
26657;BME280;14279;50.010;8.260;2023-05-24T04:23:29;100985.50;;;11.28;60.09
26657;BME280;14279;50.010;8.260;2023-05-24T04:25:54;100981.16;;;11.50;59.40
26657;BME280;14279;50.010;8.260;2023-05-24T04:28:20;100992.47;;;11.50;59.09
26657;BME280;14279;50.010;8.260;2023-05-24T04:30:46;100994.94;;;11.31;59.69
26657;BME280;14279;50.010;8.260;2023-05-24T04:33:12;100989.78;;;11.30;59.88
26657;BME280;14279;50.010;8.260;2023-05-24T04:35:38;100995.88;;;11.06;60.96
26657;BME280;14279;50.010;8.260;2023-05-24T04:38:04;101003.00;;;11.01;61.51
26657;BME280;14279;50.010;8.260;2023-05-24T04:40:29;101011.25;;;11.36;60.45
26657;BME280;14279;50.010;8.260;2023-05-24T04:42:55;101009.59;;;11.34;60.51
26657;BME280;14279;50.010;8.260;2023-05-24T04:45:20;101009.41;;;11.16;61.01
26657;BME280;14279;50.010;8.260;2023-05-24T04:47:46;101011.25;;;11.36;60.37
26657;BME280;14279;50.010;8.260;2023-05-24T04:50:11;101021.72;;;11.12;59.76
26657;BME280;14279;50.010;8.260;2023-05-24T04:52:36;101025.72;;;11.21;60.30
26657;BME280;14279;50.010;8.260;2023-05-24T04:55:02;101021.59;;;11.16;59.74
26657;BME280;14279;50.010;8.260;2023-05-24T04:57:28;101018.47;;;11.30;59.78
26657;BME280;14279;50.010;8.260;2023-05-24T04:59:53;101024.94;;;11.19;59.93
26657;BME280;14279;50.010;8.260;2023-05-24T05:02:19;101022.03;;;11.27;59.89
26657;BME280;14279;50.010;8.260;2023-05-24T05:04:47;101020.69;;;11.39;59.93
26657;BME280;14279;50.010;8.260;2023-05-24T05:07:12;101027.47;;;10.97;60.64
26657;BME280;14279;50.010;8.260;2023-05-24T05:09:37;101029.84;;;11.03;61.37
26657;BME280;14279;50.010;8.260;2023-05-24T05:12:03;101021.75;;;11.11;61.21
26657;BME280;14279;50.010;8.260;2023-05-24T05:14:28;101020.69;;;11.17;60.48
26657;BME280;14279;50.010;8.260;2023-05-24T05:16:54;101023.03;;;11.23;59.98
26657;BME280;14279;50.010;8.260;2023-05-24T05:19:19;101023.78;;;11.26;59.46
26657;BME280;14279;50.010;8.260;2023-05-24T05:21:44;101014.44;;;11.21;59.52
26657;BME280;14279;50.010;8.260;2023-05-24T05:24:10;101010.13;;;11.20;59.78
26657;BME280;14279;50.010;8.260;2023-05-24T05:26:35;101013.47;;;11.23;59.62
26657;BME280;14279;50.010;8.260;2023-05-24T05:29:01;101009.25;;;11.65;58.48
26657;BME280;14279;50.010;8.260;2023-05-24T05:31:26;101015.59;;;11.36;58.21
26657;BME280;14279;50.010;8.260;2023-05-24T05:33:51;101032.03;;;11.16;58.48
26657;BME280;14279;50.010;8.260;2023-05-24T05:36:17;101038.66;;;11.01;58.34
26657;BME280;14279;50.010;8.260;2023-05-24T05:38:42;101039.88;;;10.66;59.65
26657;BME280;14279;50.010;8.260;2023-05-24T05:41:08;101055.09;;;10.77;59.54
26657;BME280;14279;50.010;8.260;2023-05-24T05:43:33;101060.91;;;10.86;59.42
26657;BME280;14279;50.010;8.260;2023-05-24T05:45:58;101062.81;;;10.80;58.98
26657;BME280;14279;50.010;8.260;2023-05-24T05:48:24;101064.31;;;10.62;59.44
26657;BME280;14279;50.010;8.260;2023-05-24T05:50:50;101067.22;;;10.78;59.43
26657;BME280;14279;50.010;8.260;2023-05-24T05:53:15;101071.63;;;10.76;59.56
26657;BME280;14279;50.010;8.260;2023-05-24T05:55:41;101062.19;;;10.74;59.61
26657;BME280;14279;50.010;8.260;2023-05-24T05:58:06;101062.31;;;10.94;59.75
26657;BME280;14279;50.010;8.260;2023-05-24T06:00:31;101058.97;;;11.15;58.90
26657;BME280;14279;50.010;8.260;2023-05-24T06:02:57;101053.59;;;11.19;58.76
26657;BME280;14279;50.010;8.260;2023-05-24T06:05:22;101056.91;;;11.23;58.43
26657;BME280;14279;50.010;8.260;2023-05-24T06:07:47;101050.13;;;11.42;57.79
26657;BME280;14279;50.010;8.260;2023-05-24T06:10:12;101060.31;;;11.71;57.40
26657;BME280;14279;50.010;8.260;2023-05-24T06:12:38;101075.41;;;11.17;56.73
26657;BME280;14279;50.010;8.260;2023-05-24T06:15:05;101066.22;;;11.06;58.17
26657;BME280;14279;50.010;8.260;2023-05-24T06:17:31;101075.84;;;10.80;58.52
26657;BME280;14279;50.010;8.260;2023-05-24T06:19:56;101075.25;;;10.72;58.70
26657;BME280;14279;50.010;8.260;2023-05-24T06:22:21;101073.03;;;10.87;58.32
26657;BME280;14279;50.010;8.260;2023-05-24T06:24:47;101078.91;;;10.92;57.95
26657;BME280;14279;50.010;8.260;2023-05-24T06:27:13;101074.41;;;11.43;57.09
26657;BME280;14279;50.010;8.260;2023-05-24T06:29:38;101078.28;;;11.33;56.91
26657;BME280;14279;50.010;8.260;2023-05-24T06:32:04;101081.63;;;11.36;57.06
26657;BME280;14279;50.010;8.260;2023-05-24T06:34:29;101089.44;;;11.36;55.88
26657;BME280;14279;50.010;8.260;2023-05-24T06:36:55;101090.91;;;11.43;55.92
26657;BME280;14279;50.010;8.260;2023-05-24T06:39:20;101085.97;;;11.36;56.61
26657;BME280;14279;50.010;8.260;2023-05-24T06:41:45;101074.22;;;11.48;56.23
26657;BME280;14279;50.010;8.260;2023-05-24T06:44:11;101085.09;;;11.81;55.53
26657;BME280;14279;50.010;8.260;2023-05-24T06:46:36;101086.81;;;11.60;55.47
26657;BME280;14279;50.010;8.260;2023-05-24T06:49:02;101084.00;;;11.42;56.30
26657;BME280;14279;50.010;8.260;2023-05-24T06:51:27;101083.63;;;11.96;55.62
26657;BME280;14279;50.010;8.260;2023-05-24T06:53:53;101080.25;;;11.94;54.92
26657;BME280;14279;50.010;8.260;2023-05-24T06:56:18;101078.22;;;12.23;53.48
26657;BME280;14279;50.010;8.260;2023-05-24T06:58:43;101077.63;;;11.94;53.78
26657;BME280;14279;50.010;8.260;2023-05-24T07:01:09;101076.84;;;11.92;53.83
26657;BME280;14279;50.010;8.260;2023-05-24T07:03:34;101067.41;;;12.12;53.97
26657;BME280;14279;50.010;8.260;2023-05-24T07:06:00;101067.88;;;12.42;52.70
26657;BME280;14279;50.010;8.260;2023-05-24T07:08:26;101064.69;;;12.36;51.78
26657;BME280;14279;50.010;8.260;2023-05-24T07:10:52;101070.00;;;12.12;52.45
26657;BME280;14279;50.010;8.260;2023-05-24T07:13:18;101076.41;;;12.46;52.24
26657;BME280;14279;50.010;8.260;2023-05-24T07:15:45;101064.09;;;12.50;51.65
26657;BME280;14279;50.010;8.260;2023-05-24T07:18:11;101064.25;;;12.86;51.04
26657;BME280;14279;50.010;8.260;2023-05-24T07:20:36;101070.25;;;12.68;51.03
26657;BME280;14279;50.010;8.260;2023-05-24T07:23:01;101067.16;;;12.39;51.56
26657;BME280;14279;50.010;8.260;2023-05-24T07:25:27;101067.63;;;12.48;51.76
26657;BME280;14279;50.010;8.260;2023-05-24T07:27:53;101070.41;;;12.44;52.81
26657;BME280;14279;50.010;8.260;2023-05-24T07:30:18;101063.84;;;12.75;52.39
26657;BME280;14279;50.010;8.260;2023-05-24T07:32:44;101066.03;;;13.05;50.87
26657;BME280;14279;50.010;8.260;2023-05-24T07:35:10;101059.06;;;12.85;50.52
26657;BME280;14279;50.010;8.260;2023-05-24T07:37:39;101066.22;;;12.81;50.12
26657;BME280;14279;50.010;8.260;2023-05-24T07:40:05;101065.16;;;12.85;50.42
26657;BME280;14279;50.010;8.260;2023-05-24T07:42:40;101063.59;;;13.00;50.02
26657;BME280;14279;50.010;8.260;2023-05-24T07:45:07;101081.28;;;13.33;49.72
26657;BME280;14279;50.010;8.260;2023-05-24T07:47:35;101076.31;;;12.89;48.76
26657;BME280;14279;50.010;8.260;2023-05-24T07:50:01;101080.88;;;12.84;49.11
26657;BME280;14279;50.010;8.260;2023-05-24T07:52:27;101091.66;;;12.97;48.63
26657;BME280;14279;50.010;8.260;2023-05-24T07:54:53;101097.44;;;13.03;47.98
26657;BME280;14279;50.010;8.260;2023-05-24T07:57:19;101098.06;;;12.89;49.58
26657;BME280;14279;50.010;8.260;2023-05-24T07:59:44;101092.72;;;13.12;49.30
26657;BME280;14279;50.010;8.260;2023-05-24T08:02:10;101085.53;;;13.36;49.39
26657;BME280;14279;50.010;8.260;2023-05-24T08:04:36;101081.19;;;13.56;46.80
26657;BME280;14279;50.010;8.260;2023-05-24T08:07:01;101083.94;;;13.52;47.19
26657;BME280;14279;50.010;8.260;2023-05-24T08:09:27;101087.97;;;13.60;47.06
26657;BME280;14279;50.010;8.260;2023-05-24T08:12:00;101092.59;;;13.72;46.84
26657;BME280;14279;50.010;8.260;2023-05-24T08:14:25;101089.19;;;13.70;46.71
26657;BME280;14279;50.010;8.260;2023-05-24T08:16:50;101082.16;;;13.53;47.33
26657;BME280;14279;50.010;8.260;2023-05-24T08:19:16;101081.56;;;14.20;46.51
26657;BME280;14279;50.010;8.260;2023-05-24T08:21:41;101083.69;;;14.64;45.80
26657;BME280;14279;50.010;8.260;2023-05-24T08:24:07;101076.44;;;14.87;45.23
26657;BME280;14279;50.010;8.260;2023-05-24T08:26:32;101074.97;;;15.15;43.96
26657;BME280;14279;50.010;8.260;2023-05-24T08:28:58;101070.06;;;15.41;43.29
26657;BME280;14279;50.010;8.260;2023-05-24T08:31:23;101071.50;;;15.30;42.25
26657;BME280;14279;50.010;8.260;2023-05-24T08:33:48;101072.75;;;15.07;41.50
26657;BME280;14279;50.010;8.260;2023-05-24T08:36:16;101069.94;;;14.25;42.48
26657;BME280;14279;50.010;8.260;2023-05-24T08:38:41;101079.44;;;14.28;42.27
26657;BME280;14279;50.010;8.260;2023-05-24T08:41:06;101075.41;;;14.03;43.32
26657;BME280;14279;50.010;8.260;2023-05-24T08:43:32;101078.72;;;13.89;45.26
26657;BME280;14279;50.010;8.260;2023-05-24T08:46:00;101081.22;;;13.54;45.79
26657;BME280;14279;50.010;8.260;2023-05-24T08:48:27;101094.94;;;13.21;47.10
26657;BME280;14279;50.010;8.260;2023-05-24T08:50:52;101097.38;;;13.05;48.26
26657;BME280;14279;50.010;8.260;2023-05-24T08:53:19;101090.91;;;13.14;47.78
26657;BME280;14279;50.010;8.260;2023-05-24T08:55:47;101087.50;;;13.12;48.53
26657;BME280;14279;50.010;8.260;2023-05-24T08:58:14;101093.38;;;13.36;48.20
26657;BME280;14279;50.010;8.260;2023-05-24T09:00:39;101093.50;;;13.14;48.77
26657;BME280;14279;50.010;8.260;2023-05-24T09:03:05;101093.94;;;12.84;49.40
26657;BME280;14279;50.010;8.260;2023-05-24T09:05:32;101080.84;;;12.85;49.24
26657;BME280;14279;50.010;8.260;2023-05-24T09:07:58;101082.38;;;12.89;49.08
26657;BME280;14279;50.010;8.260;2023-05-24T09:10:24;101088.16;;;13.17;48.68
26657;BME280;14279;50.010;8.260;2023-05-24T09:12:54;101086.28;;;13.00;48.20
26657;BME280;14279;50.010;8.260;2023-05-24T09:15:20;101094.44;;;13.32;48.77
26657;BME280;14279;50.010;8.260;2023-05-24T09:17:45;101095.72;;;13.23;48.68
26657;BME280;14279;50.010;8.260;2023-05-24T09:20:11;101091.59;;;12.98;49.36
26657;BME280;14279;50.010;8.260;2023-05-24T09:22:42;101096.66;;;12.82;50.05
26657;BME280;14279;50.010;8.260;2023-05-24T09:25:08;101080.19;;;12.80;50.15
26657;BME280;14279;50.010;8.260;2023-05-24T09:27:35;101091.69;;;12.76;48.93
26657;BME280;14279;50.010;8.260;2023-05-24T09:30:01;101087.47;;;12.92;49.41
26657;BME280;14279;50.010;8.260;2023-05-24T09:32:29;101093.28;;;12.99;48.02
26657;BME280;14279;50.010;8.260;2023-05-24T09:34:57;101081.78;;;13.22;48.06
26657;BME280;14279;50.010;8.260;2023-05-24T09:37:24;101093.56;;;13.12;46.60
26657;BME280;14279;50.010;8.260;2023-05-24T09:39:52;101106.50;;;13.15;45.34
26657;BME280;14279;50.010;8.260;2023-05-24T09:42:27;101098.78;;;13.12;45.55
26657;BME280;14279;50.010;8.260;2023-05-24T09:45:07;101102.53;;;13.46;47.04
26657;BME280;14279;50.010;8.260;2023-05-24T09:47:38;101101.19;;;13.57;47.11
26657;BME280;14279;50.010;8.260;2023-05-24T09:50:05;101093.03;;;13.63;47.28
26657;BME280;14279;50.010;8.260;2023-05-24T09:52:35;101075.72;;;13.97;47.26
26657;BME280;14279;50.010;8.260;2023-05-24T09:55:16;101078.09;;;14.54;46.00
26657;BME280;14279;50.010;8.260;2023-05-24T09:58:00;101075.72;;;14.50;45.06
26657;BME280;14279;50.010;8.260;2023-05-24T10:00:27;101054.63;;;14.00;45.34
26657;BME280;14279;50.010;8.260;2023-05-24T10:03:00;101058.94;;;14.19;44.94
26657;BME280;14279;50.010;8.260;2023-05-24T10:05:27;101056.28;;;14.36;44.34
26657;BME280;14279;50.010;8.260;2023-05-24T10:07:54;101043.81;;;14.93;43.54
26657;BME280;14279;50.010;8.260;2023-05-24T10:10:19;101051.22;;;15.50;42.42
26657;BME280;14279;50.010;8.260;2023-05-24T10:12:45;101045.75;;;15.53;42.30
26657;BME280;14279;50.010;8.260;2023-05-24T10:15:11;101049.91;;;15.41;42.03
26657;BME280;14279;50.010;8.260;2023-05-24T10:17:36;101045.19;;;15.64;42.14
26657;BME280;14279;50.010;8.260;2023-05-24T10:20:02;101048.13;;;15.74;42.01
26657;BME280;14279;50.010;8.260;2023-05-24T10:22:29;101052.47;;;15.11;43.05
26657;BME280;14279;50.010;8.260;2023-05-24T10:24:56;101055.34;;;15.06;43.04
26657;BME280;14279;50.010;8.260;2023-05-24T10:27:26;101057.38;;;15.17;42.94
26657;BME280;14279;50.010;8.260;2023-05-24T10:32:44;101058.97;;;15.52;42.18
26657;BME280;14279;50.010;8.260;2023-05-24T10:35:10;101053.78;;;15.66;42.33
26657;BME280;14279;50.010;8.260;2023-05-24T10:37:36;101053.41;;;15.58;42.00
26657;BME280;14279;50.010;8.260;2023-05-24T10:40:03;101049.00;;;15.42;42.81
26657;BME280;14279;50.010;8.260;2023-05-24T10:42:30;101057.00;;;15.71;42.56
26657;BME280;14279;50.010;8.260;2023-05-24T10:44:56;101043.06;;;15.23;42.86
26657;BME280;14279;50.010;8.260;2023-05-24T10:47:24;101044.66;;;15.73;42.03
26657;BME280;14279;50.010;8.260;2023-05-24T10:49:56;101041.38;;;15.70;41.43
26657;BME280;14279;50.010;8.260;2023-05-24T10:52:35;101030.75;;;15.87;41.23
26657;BME280;14279;50.010;8.260;2023-05-24T10:55:08;101028.38;;;16.13;40.90
26657;BME280;14279;50.010;8.260;2023-05-24T10:57:35;101032.28;;;15.91;41.38
26657;BME280;14279;50.010;8.260;2023-05-24T11:02:47;101032.56;;;15.71;41.68
26657;BME280;14279;50.010;8.260;2023-05-24T11:05:12;101019.88;;;16.10;41.45
26657;BME280;14279;50.010;8.260;2023-05-24T11:07:41;101026.72;;;15.66;40.71
26657;BME280;14279;50.010;8.260;2023-05-24T11:10:30;101033.69;;;15.18;42.23
26657;BME280;14279;50.010;8.260;2023-05-24T11:12:59;101033.16;;;15.12;42.20
26657;BME280;14279;50.010;8.260;2023-05-24T11:15:25;101026.41;;;15.56;41.21
26657;BME280;14279;50.010;8.260;2023-05-24T11:20:38;101024.72;;;16.16;40.25
26657;BME280;14279;50.010;8.260;2023-05-24T11:23:04;101023.78;;;15.24;41.43
26657;BME280;14279;50.010;8.260;2023-05-24T11:25:34;101023.03;;;15.22;41.30
26657;BME280;14279;50.010;8.260;2023-05-24T11:28:01;101025.75;;;15.20;41.30
26657;BME280;14279;50.010;8.260;2023-05-24T11:30:27;101021.66;;;15.30;40.17
26657;BME280;14279;50.010;8.260;2023-05-24T11:32:52;101031.97;;;15.66;40.22
26657;BME280;14279;50.010;8.260;2023-05-24T11:35:18;101025.06;;;15.79;40.03
26657;BME280;14279;50.010;8.260;2023-05-24T11:37:43;101005.81;;;15.64;40.20
26657;BME280;14279;50.010;8.260;2023-05-24T11:40:10;101018.88;;;15.96;39.20
26657;BME280;14279;50.010;8.260;2023-05-24T11:42:36;101012.41;;;16.02;39.67
26657;BME280;14279;50.010;8.260;2023-05-24T11:45:03;101012.19;;;15.44;39.38
26657;BME280;14279;50.010;8.260;2023-05-24T11:47:29;101003.06;;;16.12;39.04
26657;BME280;14279;50.010;8.260;2023-05-24T11:49:54;101003.19;;;16.40;39.02
26657;BME280;14279;50.010;8.260;2023-05-24T11:52:19;101011.28;;;16.51;38.66
26657;BME280;14279;50.010;8.260;2023-05-24T11:54:45;101001.56;;;16.08;39.26
26657;BME280;14279;50.010;8.260;2023-05-24T11:57:11;101006.56;;;16.13;40.22
26657;BME280;14279;50.010;8.260;2023-05-24T11:59:36;101003.38;;;15.45;40.70
26657;BME280;14279;50.010;8.260;2023-05-24T12:02:04;101001.81;;;15.73;40.99
26657;BME280;14279;50.010;8.260;2023-05-24T12:04:33;101001.88;;;15.71;39.84
26657;BME280;14279;50.010;8.260;2023-05-24T12:06:59;100996.28;;;15.93;39.72
26657;BME280;14279;50.010;8.260;2023-05-24T12:09:25;100995.84;;;16.16;39.13
26657;BME280;14279;50.010;8.260;2023-05-24T12:11:51;100994.19;;;16.58;38.28
26657;BME280;14279;50.010;8.260;2023-05-24T12:14:22;100998.97;;;16.66;37.15
26657;BME280;14279;50.010;8.260;2023-05-24T12:16:55;100997.28;;;16.50;38.26
26657;BME280;14279;50.010;8.260;2023-05-24T12:19:22;100990.03;;;16.97;37.71
26657;BME280;14279;50.010;8.260;2023-05-24T12:21:53;100998.88;;;16.53;38.45
26657;BME280;14279;50.010;8.260;2023-05-24T12:24:19;100989.09;;;16.41;39.43
26657;BME280;14279;50.010;8.260;2023-05-24T12:26:46;100994.84;;;16.62;38.74
26657;BME280;14279;50.010;8.260;2023-05-24T12:29:12;100992.66;;;16.40;39.53
26657;BME280;14279;50.010;8.260;2023-05-24T12:31:39;100992.75;;;16.52;39.17
26657;BME280;14279;50.010;8.260;2023-05-24T12:34:05;100985.16;;;16.62;38.86
26657;BME280;14279;50.010;8.260;2023-05-24T12:36:32;100990.63;;;16.45;39.54
26657;BME280;14279;50.010;8.260;2023-05-24T12:38:59;100992.66;;;16.40;39.72
26657;BME280;14279;50.010;8.260;2023-05-24T12:41:28;100993.25;;;16.45;40.84
26657;BME280;14279;50.010;8.260;2023-05-24T12:43:54;100998.44;;;15.87;40.01
26657;BME280;14279;50.010;8.260;2023-05-24T12:46:19;100986.72;;;16.07;40.42
26657;BME280;14279;50.010;8.260;2023-05-24T12:48:44;100987.84;;;16.03;39.44
26657;BME280;14279;50.010;8.260;2023-05-24T12:51:10;100985.22;;;16.03;39.33
26657;BME280;14279;50.010;8.260;2023-05-24T12:53:35;100985.84;;;16.37;39.36
26657;BME280;14279;50.010;8.260;2023-05-24T12:56:01;100983.97;;;16.39;39.67
26657;BME280;14279;50.010;8.260;2023-05-24T12:58:26;100983.03;;;16.40;38.61
26657;BME280;14279;50.010;8.260;2023-05-24T13:00:51;100977.78;;;15.95;41.36
26657;BME280;14279;50.010;8.260;2023-05-24T13:03:17;100980.94;;;16.31;40.94
26657;BME280;14279;50.010;8.260;2023-05-24T13:05:42;100977.84;;;16.53;40.78
26657;BME280;14279;50.010;8.260;2023-05-24T13:08:08;100976.69;;;17.28;38.53
26657;BME280;14279;50.010;8.260;2023-05-24T13:10:34;100983.56;;;16.16;41.16
26657;BME280;14279;50.010;8.260;2023-05-24T13:12:59;100976.84;;;15.96;42.39